createdAt,value
2023-04-11T00:00:21.216Z,27.50
2023-04-11T00:02:49.495Z,27.50
2023-04-11T00:05:17.734Z,27.50
2023-04-11T00:07:46.020Z,27.40
2023-04-11T00:10:14.138Z,27.40
2023-04-11T00:12:42.406Z,27.50
2023-04-11T00:15:11.023Z,27.50
2023-04-11T00:17:39.565Z,27.50
2023-04-11T00:20:08.547Z,27.40
2023-04-11T00:22:36.802Z,27.50
2023-04-11T00:25:05.606Z,27.50
2023-04-11T00:27:33.665Z,27.50
2023-04-11T00:30:01.864Z,27.50
2023-04-11T00:32:30.305Z,27.50
2023-04-11T00:34:58.588Z,27.50
2023-04-11T00:37:27.057Z,27.50
2023-04-11T00:39:56.828Z,27.50
2023-04-11T00:42:25.283Z,27.50
2023-04-11T00:44:53.529Z,27.60
2023-04-11T00:47:21.967Z,27.50
2023-04-11T00:49:56.347Z,27.50
2023-04-11T00:52:25.103Z,27.60
2023-04-11T00:54:53.387Z,27.50
2023-04-11T00:57:22.923Z,27.60
2023-04-11T00:59:51.097Z,27.60
2023-04-11T01:02:19.428Z,27.60
2023-04-11T01:04:48.062Z,27.60
2023-04-11T01:07:18.129Z,27.50
2023-04-11T01:09:47.933Z,27.60
2023-04-11T01:12:17.818Z,27.60
2023-04-11T01:14:46.268Z,27.50
2023-04-11T01:17:15.059Z,27.60
2023-04-11T01:19:44.164Z,27.50
2023-04-11T01:22:13.852Z,27.50
2023-04-11T01:24:42.325Z,27.50
2023-04-11T01:27:10.706Z,27.50
2023-04-11T01:29:39.158Z,27.50
2023-04-11T01:32:07.715Z,27.50
2023-04-11T01:34:38.553Z,27.50
2023-04-11T01:37:07.177Z,27.50
2023-04-11T01:39:35.414Z,27.40
2023-04-11T01:42:05.102Z,27.50
2023-04-11T01:44:33.703Z,27.50
2023-04-11T01:47:05.126Z,27.40
2023-04-11T01:49:33.281Z,27.40
2023-04-11T01:52:01.493Z,27.40
2023-04-11T01:54:29.867Z,27.50
2023-04-11T01:56:59.163Z,27.40
2023-04-11T01:59:28.823Z,27.40
2023-04-11T02:01:57.140Z,27.40
2023-04-11T02:04:25.467Z,27.40
2023-04-11T02:06:53.946Z,27.40
2023-04-11T02:09:22.201Z,27.40
2023-04-11T02:11:50.361Z,27.40
2023-04-11T02:14:20.955Z,27.40
2023-04-11T02:16:57.208Z,27.30
2023-04-11T02:19:25.426Z,27.30
2023-04-11T02:21:53.680Z,27.30
2023-04-11T02:24:21.813Z,27.30
2023-04-11T02:26:50.013Z,27.30
2023-04-11T02:29:18.728Z,27.30
2023-04-11T02:31:49.767Z,27.20
2023-04-11T02:34:18.830Z,27.20
2023-04-11T02:36:47.351Z,27.20
2023-04-11T02:39:16.147Z,27.20
2023-04-11T02:41:44.401Z,27.10
2023-04-11T02:44:12.920Z,27.10
2023-04-11T02:46:42.626Z,27.10
2023-04-11T02:49:11.552Z,27.10
2023-04-11T02:51:39.720Z,27.10
2023-04-11T02:54:08.153Z,27.00
2023-04-11T02:56:38.323Z,27.00
2023-04-11T02:59:07.211Z,26.90
2023-04-11T03:01:36.381Z,26.80
2023-04-11T03:04:05.008Z,26.80
2023-04-11T03:06:54.243Z,26.80
2023-04-11T03:09:22.912Z,26.80
2023-04-11T03:11:51.567Z,26.80
2023-04-11T03:14:19.640Z,26.80
2023-04-11T03:16:47.942Z,26.80
2023-04-11T03:19:16.369Z,26.80
2023-04-11T03:21:45.204Z,26.80
2023-04-11T03:24:13.771Z,26.80
2023-04-11T03:26:43.443Z,26.80
2023-04-11T03:29:15.163Z,26.80
2023-04-11T03:32:00.563Z,26.70
2023-04-11T03:34:32.628Z,26.70
2023-04-11T03:37:01.563Z,26.70
2023-04-11T03:39:29.824Z,26.70
2023-04-11T03:42:00.341Z,26.60
2023-04-11T03:44:29.107Z,26.60
2023-04-11T03:46:58.612Z,26.60
2023-04-11T03:49:33.139Z,26.60
2023-04-11T03:52:01.716Z,26.60
2023-04-11T03:54:30.954Z,26.50
2023-04-11T03:56:59.480Z,26.50
2023-04-11T03:59:29.889Z,26.60
2023-04-11T04:02:02.753Z,26.50
2023-04-11T04:04:35.492Z,26.60
2023-04-11T04:07:19.537Z,26.50
2023-04-11T04:09:48.381Z,26.50
2023-04-11T04:12:17.175Z,26.50
2023-04-11T04:15:09.322Z,26.50
2023-04-11T04:17:38.067Z,26.50
2023-04-11T04:20:11.992Z,26.50
2023-04-11T04:22:42.035Z,26.50
2023-04-11T04:25:11.113Z,26.50
2023-04-11T04:27:39.992Z,26.50
2023-04-11T04:30:09.405Z,26.50
2023-04-11T04:32:52.990Z,26.50
2023-04-11T04:35:21.896Z,26.50
2023-04-11T04:37:50.377Z,26.50
2023-04-11T04:40:36.680Z,26.50
2023-04-11T04:43:07.378Z,26.50
2023-04-11T04:45:55.730Z,26.50
2023-04-11T04:48:28.766Z,26.50
2023-04-11T04:50:57.161Z,26.50
2023-04-11T04:53:25.375Z,26.50
2023-04-11T04:55:59.802Z,26.50
2023-04-11T04:58:30.596Z,26.40
2023-04-11T05:01:02.737Z,26.50
2023-04-11T05:03:34.159Z,26.40
2023-04-11T05:06:03.422Z,26.40
2023-04-11T05:08:32.985Z,26.50
2023-04-11T05:11:03.874Z,26.40
2023-04-11T05:13:35.217Z,26.40
2023-04-11T05:16:04.855Z,26.40
2023-04-11T05:18:33.278Z,26.40
2023-04-11T05:21:02.290Z,26.40
2023-04-11T05:23:36.352Z,26.40
2023-04-11T05:26:04.809Z,26.40
2023-04-11T05:28:35.536Z,26.40
2023-04-11T05:31:08.951Z,26.40
2023-04-11T05:33:37.599Z,26.30
2023-04-11T05:36:08.093Z,26.30
2023-04-11T05:38:36.262Z,26.30
2023-04-11T05:41:04.742Z,26.20
2023-04-11T05:43:33.029Z,26.20
2023-04-11T05:46:02.820Z,26.20
2023-04-11T05:48:31.440Z,26.20
2023-04-11T05:51:00.210Z,26.20
2023-04-11T05:53:28.529Z,26.20
2023-04-11T05:55:56.812Z,26.20
2023-04-11T05:58:25.743Z,26.20
2023-04-11T06:00:53.919Z,26.20
2023-04-11T06:03:22.385Z,26.20
2023-04-11T06:05:50.760Z,26.20
2023-04-11T06:08:19.031Z,26.20
2023-04-11T06:10:47.469Z,26.20
2023-04-11T06:13:15.779Z,26.20
2023-04-11T06:15:44.195Z,26.30
2023-04-11T06:18:12.359Z,26.30
2023-04-11T06:20:40.660Z,26.20
2023-04-11T06:23:08.941Z,26.20
2023-04-11T06:25:37.283Z,26.20
2023-04-11T06:28:05.503Z,26.20
2023-04-11T06:30:33.711Z,26.20
2023-04-11T06:33:02.131Z,26.10
2023-04-11T06:35:30.481Z,26.20
2023-04-11T06:37:58.738Z,26.10
2023-04-11T06:40:26.934Z,26.20
2023-04-11T06:42:55.180Z,26.10
2023-04-11T06:45:23.590Z,26.10
2023-04-11T06:47:51.688Z,26.10
2023-04-11T06:50:20.054Z,26.00
2023-04-11T06:52:48.231Z,26.00
2023-04-11T06:55:16.672Z,26.00
2023-04-11T06:57:45.062Z,26.00
2023-04-11T07:00:13.786Z,26.00
2023-04-11T07:02:42.288Z,26.00
2023-04-11T07:05:10.764Z,26.10
2023-04-11T07:07:38.912Z,26.10
2023-04-11T07:10:07.734Z,26.10
2023-04-11T07:12:36.040Z,26.10
2023-04-11T07:15:04.894Z,26.10
2023-04-11T07:17:33.011Z,26.10
2023-04-11T07:20:01.248Z,26.10
2023-04-11T07:22:29.438Z,26.10
2023-04-11T07:24:57.871Z,26.10
2023-04-11T07:27:25.897Z,26.10
2023-04-11T07:29:54.171Z,26.10
2023-04-11T07:32:22.419Z,26.10
2023-04-11T07:34:50.800Z,26.20
2023-04-11T07:37:19.082Z,26.10
2023-04-11T07:39:47.198Z,26.20
2023-04-11T07:42:15.542Z,26.20
2023-04-11T07:44:43.853Z,26.20
2023-04-11T07:47:12.106Z,26.30
2023-04-11T07:49:40.330Z,26.30
2023-04-11T07:52:08.560Z,26.30
2023-04-11T07:54:36.894Z,26.30
2023-04-11T08:02:00.001Z,26.40
2023-04-11T08:04:32.646Z,26.50
2023-04-11T08:07:01.128Z,26.50
2023-04-11T08:09:29.258Z,26.50
2023-04-11T08:11:57.555Z,26.60
2023-04-11T08:14:26.157Z,26.60
2023-04-11T08:16:54.761Z,26.60
2023-04-11T08:19:23.109Z,26.70
2023-04-11T08:21:51.461Z,26.70
2023-04-11T08:24:20.161Z,26.70
2023-04-11T08:26:48.445Z,26.80
2023-04-11T08:29:16.933Z,26.80
2023-04-11T08:31:45.882Z,26.80
2023-04-11T08:34:14.210Z,26.90
2023-04-11T08:36:42.382Z,26.90
2023-04-11T08:39:10.620Z,26.90
2023-04-11T08:41:40.180Z,27.00
2023-04-11T08:44:11.902Z,27.00
2023-04-11T08:46:43.170Z,27.10
2023-04-11T08:49:12.057Z,27.10
2023-04-11T08:51:44.351Z,27.20
2023-04-11T08:54:12.932Z,27.20
2023-04-11T08:56:42.840Z,27.20
2023-04-11T08:59:10.975Z,27.30
2023-04-11T09:01:39.189Z,27.30
2023-04-11T09:04:07.510Z,27.40
2023-04-11T09:06:35.724Z,27.40
2023-04-11T09:09:05.367Z,27.50
2023-04-11T09:11:52.940Z,27.60
2023-04-11T09:14:25.936Z,27.70
2023-04-11T09:16:59.167Z,27.70
2023-04-11T09:19:32.263Z,27.80
2023-04-11T09:22:02.842Z,27.80
2023-04-11T09:24:33.370Z,27.90
2023-04-11T09:27:13.543Z,28.00
2023-04-11T09:29:49.267Z,28.00
2023-04-11T09:32:34.311Z,28.10
2023-04-11T09:35:13.754Z,28.10
2023-04-11T09:37:47.863Z,28.20
2023-04-11T09:40:18.438Z,28.30
2023-04-11T09:42:48.093Z,28.40
2023-04-11T09:45:24.364Z,28.40
2023-04-11T09:47:56.488Z,28.40
2023-04-11T09:50:26.572Z,28.40
2023-04-11T09:52:56.483Z,28.40
2023-04-11T09:55:26.701Z,28.50
2023-04-11T09:57:55.563Z,28.50
2023-04-11T10:00:25.970Z,28.60
2023-04-11T10:02:54.626Z,28.60
2023-04-11T10:05:27.577Z,28.70
2023-04-11T10:08:09.351Z,28.60
2023-04-11T10:10:38.084Z,28.60
2023-04-11T10:13:39.298Z,28.60
2023-04-11T10:16:07.858Z,28.70
2023-04-11T10:18:37.081Z,28.80
2023-04-11T10:21:25.876Z,28.80
2023-04-11T10:24:16.358Z,28.90
2023-04-11T10:26:49.348Z,29.00
2023-04-11T10:29:31.024Z,28.90
2023-04-11T10:32:18.773Z,28.90
2023-04-11T10:34:55.912Z,29.00
2023-04-11T10:37:37.657Z,29.00
2023-04-11T10:40:09.435Z,28.80
2023-04-11T10:42:43.844Z,28.80
2023-04-11T10:45:28.392Z,28.70
2023-04-11T10:48:12.123Z,28.70
2023-04-11T10:50:42.576Z,28.70
2023-04-11T10:53:31.929Z,28.80
2023-04-11T10:56:01.952Z,28.80
2023-04-11T10:58:40.312Z,28.80
2023-04-11T11:01:31.273Z,29.00
2023-04-11T11:04:06.129Z,29.10
2023-04-11T11:06:46.077Z,29.20
2023-04-11T11:09:22.409Z,29.20
2023-04-11T11:12:07.615Z,29.20
2023-04-11T11:14:36.550Z,29.20
2023-04-11T11:17:05.099Z,29.30
2023-04-11T11:19:34.402Z,29.40
2023-04-11T11:22:14.677Z,29.40
2023-04-11T11:24:42.846Z,29.40
2023-04-11T11:27:24.840Z,29.40
2023-04-11T11:29:53.766Z,29.40
2023-04-11T11:32:27.013Z,29.50
2023-04-11T11:34:55.682Z,29.50
2023-04-11T11:37:23.958Z,29.60
2023-04-11T11:39:52.725Z,29.70
2023-04-11T11:42:21.458Z,29.80
2023-04-11T11:44:49.807Z,29.80
2023-04-11T11:47:18.193Z,29.80
2023-04-11T11:49:58.305Z,29.90
2023-04-11T11:52:34.306Z,29.90
2023-04-11T11:58:01.050Z,29.90
2023-04-11T12:00:31.568Z,30.00
2023-04-11T12:03:00.868Z,30.10
2023-04-11T12:05:31.365Z,30.00
2023-04-11T12:08:02.761Z,30.00
2023-04-11T12:10:41.969Z,29.80
2023-04-11T12:13:24.883Z,29.90
2023-04-11T12:15:57.274Z,29.90
2023-04-11T12:18:27.612Z,30.00
2023-04-11T12:20:56.261Z,30.20
2023-04-11T12:23:24.506Z,30.10
2023-04-11T12:25:52.849Z,30.00
2023-04-11T12:28:21.064Z,30.00
2023-04-11T12:30:49.285Z,30.00
2023-04-11T12:33:17.471Z,30.00
2023-04-11T12:35:45.739Z,29.80
2023-04-11T12:38:17.335Z,30.00
2023-04-11T12:40:46.855Z,30.10
2023-04-11T12:43:15.136Z,30.20
2023-04-11T12:45:43.422Z,30.10
2023-04-11T12:48:13.659Z,30.10
2023-04-11T12:50:41.898Z,30.10
2023-04-11T12:53:10.339Z,30.20
2023-04-11T12:55:38.485Z,30.20
2023-04-11T12:58:07.201Z,30.20
2023-04-11T13:00:35.932Z,30.20
2023-04-11T13:03:04.718Z,30.20
2023-04-11T13:05:33.337Z,30.10
2023-04-11T13:08:01.561Z,30.10
2023-04-11T13:10:29.903Z,30.20
2023-04-11T13:13:00.653Z,30.20
2023-04-11T13:15:34.058Z,30.20
2023-04-11T13:18:02.378Z,30.10
2023-04-11T13:20:30.765Z,30.00
2023-04-11T13:22:59.063Z,30.00
2023-04-11T13:25:27.332Z,30.10
2023-04-11T13:27:55.638Z,30.10
2023-04-11T13:30:23.875Z,30.10
2023-04-11T13:32:52.306Z,30.00
2023-04-11T13:35:20.608Z,30.10
2023-04-11T13:37:48.855Z,30.20
2023-04-11T13:40:17.057Z,30.30
2023-04-11T13:42:45.242Z,30.30
2023-04-11T13:45:13.530Z,30.30
2023-04-11T13:47:41.697Z,30.20
2023-04-11T13:50:10.070Z,30.10
2023-04-11T13:52:38.425Z,30.10
2023-04-11T13:55:08.076Z,30.20
2023-04-11T13:57:36.446Z,30.40
2023-04-11T14:00:05.468Z,30.20
2023-04-11T14:02:33.965Z,30.20
2023-04-11T14:05:02.268Z,30.10
2023-04-11T14:07:30.419Z,30.10
2023-04-11T14:09:58.717Z,30.30
2023-04-11T14:12:27.574Z,30.30
2023-04-11T14:14:55.837Z,30.30
2023-04-11T14:17:24.290Z,30.40
2023-04-11T14:19:52.593Z,30.50
2023-04-11T14:22:21.359Z,30.40
2023-04-11T14:24:49.575Z,30.40
2023-04-11T14:27:18.158Z,30.40
2023-04-11T14:29:46.430Z,30.40
2023-04-11T14:32:14.633Z,30.40
2023-04-11T14:34:42.888Z,30.40
2023-04-11T14:37:11.123Z,30.30
2023-04-11T14:39:39.451Z,30.40
2023-04-11T14:42:07.694Z,30.40
2023-04-11T14:44:36.377Z,30.30
2023-04-11T14:47:04.753Z,30.20
2023-04-11T14:49:32.974Z,30.30
2023-04-11T14:52:01.370Z,30.40
2023-04-11T14:54:29.882Z,30.50
2023-04-11T14:56:58.027Z,30.60
2023-04-11T14:59:26.403Z,30.50
2023-04-11T15:01:54.886Z,30.50
2023-04-11T15:04:23.298Z,30.50
2023-04-11T15:06:51.695Z,30.60
2023-04-11T15:09:19.899Z,30.50
2023-04-11T15:11:48.629Z,30.70
2023-04-11T15:14:16.764Z,30.70
2023-04-11T15:16:44.965Z,30.80
2023-04-11T15:19:13.237Z,30.90
2023-04-11T15:21:41.387Z,31.00
2023-04-11T15:24:09.590Z,30.90
2023-04-11T15:26:37.791Z,31.10
2023-04-11T15:29:06.548Z,31.20
2023-04-11T15:31:34.770Z,31.10
2023-04-11T15:34:03.011Z,31.00
2023-04-11T15:36:31.305Z,30.90
2023-04-11T15:38:59.535Z,31.10
2023-04-11T15:41:27.930Z,31.10
2023-04-11T15:43:56.369Z,31.00
2023-04-11T15:46:25.350Z,31.10
2023-04-11T15:48:53.995Z,30.90
2023-04-11T15:51:22.727Z,31.00
2023-04-11T15:53:51.041Z,31.20
2023-04-11T15:56:20.058Z,31.40
2023-04-11T15:58:49.483Z,31.70
2023-04-11T16:01:21.942Z,31.90
2023-04-11T16:03:50.725Z,32.10
2023-04-11T16:06:19.094Z,32.30
2023-04-11T16:08:47.260Z,32.10
2023-04-11T16:11:15.411Z,32.40
2023-04-11T16:13:43.549Z,32.60
2023-04-11T16:16:11.930Z,32.60
2023-04-11T16:18:40.024Z,32.60
2023-04-11T16:21:17.362Z,32.30
2023-04-11T16:23:45.631Z,32.50
2023-04-11T16:26:13.859Z,32.60
2023-04-11T16:28:42.238Z,32.50
2023-04-11T16:31:10.540Z,32.60
2023-04-11T16:33:38.675Z,32.90
2023-04-11T16:36:07.344Z,32.90
2023-04-11T16:38:35.617Z,32.60
2023-04-11T16:41:03.781Z,32.80
2023-04-11T16:43:32.118Z,33.00
2023-04-11T16:46:00.557Z,32.70
2023-04-11T16:48:28.983Z,32.90
2023-04-11T16:50:57.207Z,33.20
2023-04-11T16:53:25.459Z,33.20
2023-04-11T16:55:53.699Z,33.40
2023-04-11T16:58:22.028Z,33.50
2023-04-11T17:00:50.392Z,33.40
2023-04-11T17:03:19.008Z,33.50
2023-04-11T17:05:47.187Z,33.00
2023-04-11T17:08:15.527Z,33.30
2023-04-11T17:10:43.743Z,33.40
2023-04-11T17:13:12.202Z,33.20
2023-04-11T17:15:40.326Z,33.00
2023-04-11T17:18:08.700Z,32.90
2023-04-11T17:20:36.995Z,32.70
2023-04-11T17:23:05.258Z,33.00
2023-04-11T17:25:33.515Z,32.90
2023-04-11T17:28:01.893Z,33.00
2023-04-11T17:30:30.869Z,32.90
2023-04-11T17:32:59.833Z,32.20
2023-04-11T17:35:29.094Z,32.20
2023-04-11T17:37:58.636Z,32.10
2023-04-11T17:40:26.831Z,32.10
2023-04-11T17:42:55.184Z,32.00
2023-04-11T17:45:23.260Z,31.90
2023-04-11T17:47:54.445Z,31.30
2023-04-11T17:50:22.659Z,31.00
2023-04-11T17:52:51.524Z,30.80
2023-04-11T17:55:19.994Z,30.80
2023-04-11T17:57:48.787Z,30.70
2023-04-11T18:00:20.115Z,30.60
2023-04-11T18:02:50.262Z,30.40
2023-04-11T18:05:24.629Z,30.50
2023-04-11T18:07:57.244Z,30.40
2023-04-11T18:10:26.521Z,30.20
2023-04-11T18:12:59.450Z,30.20
2023-04-11T18:15:28.201Z,30.10
2023-04-11T18:17:59.910Z,29.90
2023-04-11T18:20:28.673Z,29.80
2023-04-11T18:22:57.109Z,29.80
2023-04-11T18:25:25.235Z,29.70
2023-04-11T18:27:53.579Z,29.70
2023-04-11T18:30:21.691Z,29.70
2023-04-11T18:32:50.870Z,29.60
2023-04-11T18:35:19.439Z,29.60
2023-04-11T18:37:47.939Z,29.50
2023-04-11T18:40:16.943Z,29.50
2023-04-11T18:42:49.497Z,29.40
2023-04-11T18:45:18.619Z,29.30
2023-04-11T18:47:46.804Z,29.20
2023-04-11T18:50:16.003Z,29.20
2023-04-11T18:52:45.477Z,29.20
2023-04-11T18:55:14.848Z,29.10
2023-04-11T18:57:44.643Z,29.10
2023-04-11T19:00:18.433Z,29.00
2023-04-11T19:02:48.105Z,29.00
2023-04-11T19:05:17.549Z,28.90
2023-04-11T19:07:46.173Z,28.90
2023-04-11T19:10:14.436Z,28.90
2023-04-11T19:12:42.794Z,28.90
2023-04-11T19:15:11.458Z,28.90
2023-04-11T19:17:39.831Z,28.90
2023-04-11T19:20:08.701Z,28.80
2023-04-11T19:22:36.878Z,28.80
2023-04-11T19:25:05.457Z,28.80
2023-04-11T19:27:33.722Z,28.80
2023-04-11T19:30:01.889Z,28.80
2023-04-11T19:32:30.082Z,28.70
2023-04-11T19:34:58.438Z,28.70
2023-04-11T19:37:26.508Z,28.70
2023-04-11T19:39:54.739Z,28.70
2023-04-11T19:42:23.067Z,28.70
2023-04-11T19:44:51.188Z,28.70
2023-04-11T19:47:19.605Z,28.70
2023-04-11T19:49:47.883Z,28.70
2023-04-11T19:52:16.312Z,28.60
2023-04-11T19:54:44.522Z,28.60
2023-04-11T19:57:12.760Z,28.60
2023-04-11T19:59:41.068Z,28.60
2023-04-11T20:02:09.393Z,28.60
2023-04-11T20:04:37.651Z,28.60
2023-04-11T20:07:06.149Z,28.60
2023-04-11T20:09:34.287Z,28.60
2023-04-11T20:12:02.642Z,28.50
2023-04-11T20:14:30.868Z,28.50
2023-04-11T20:16:58.991Z,28.50
2023-04-11T20:19:30.250Z,28.50
2023-04-11T20:21:58.478Z,28.50
2023-04-11T20:24:26.834Z,28.50
2023-04-11T20:26:55.884Z,28.50
2023-04-11T20:29:24.102Z,28.50
2023-04-11T20:31:52.353Z,28.50
2023-04-11T20:34:20.563Z,28.50
2023-04-11T20:36:49.005Z,28.50
2023-04-11T20:39:17.170Z,28.50
2023-04-11T20:41:45.354Z,28.50
2023-04-11T20:44:13.919Z,28.50
2023-04-11T20:46:42.173Z,28.50
2023-04-11T20:49:10.542Z,28.40
2023-04-11T20:51:38.762Z,28.40
2023-04-11T20:54:06.998Z,28.40
2023-04-11T20:56:35.280Z,28.40
2023-04-11T20:59:04.136Z,28.40
2023-04-11T21:01:32.529Z,28.40
2023-04-11T21:04:02.022Z,28.40
2023-04-11T21:06:31.814Z,28.40
2023-04-11T21:09:03.314Z,28.40
2023-04-11T21:12:02.210Z,28.30
2023-04-11T21:14:30.462Z,28.40
2023-04-11T21:16:58.560Z,28.40
2023-04-11T21:19:26.965Z,28.40
2023-04-11T21:21:55.141Z,28.30
2023-04-11T21:24:23.344Z,28.30
2023-04-11T21:26:51.536Z,28.30
2023-04-11T21:29:19.918Z,28.30
2023-04-11T21:31:48.131Z,28.30
2023-04-11T21:34:16.509Z,28.30
2023-04-11T21:36:44.740Z,28.30
2023-04-11T21:39:13.030Z,28.30
2023-04-11T21:41:41.237Z,28.30
2023-04-11T21:44:09.534Z,28.30
2023-04-11T21:46:37.724Z,28.30
2023-04-11T21:49:06.094Z,28.30
2023-04-11T21:51:34.141Z,28.30
2023-04-11T21:54:04.606Z,28.30
2023-04-11T21:56:32.974Z,28.30
2023-04-11T21:59:01.119Z,28.30
2023-04-11T22:01:29.354Z,28.30
2023-04-11T22:03:57.873Z,28.20
2023-04-11T22:06:26.758Z,28.20
2023-04-11T22:08:54.831Z,28.30
2023-04-11T22:11:23.137Z,28.30
2023-04-11T22:13:51.662Z,28.20
2023-04-11T22:16:20.307Z,28.30
2023-04-11T22:18:48.466Z,28.20
2023-04-11T22:21:20.859Z,28.20
2023-04-11T22:23:53.864Z,28.30
2023-04-11T22:26:27.066Z,28.10
2023-04-11T22:28:58.377Z,28.00
2023-04-11T22:31:26.732Z,27.80
2023-04-11T22:33:55.145Z,27.70
2023-04-11T22:36:23.900Z,27.60
2023-04-11T22:38:52.111Z,27.50
2023-04-11T22:41:20.287Z,27.40
2023-04-11T22:43:48.480Z,27.30
2023-04-11T22:46:16.758Z,27.20
2023-04-11T22:48:46.861Z,27.10
2023-04-11T22:51:15.069Z,26.90
2023-04-11T22:53:43.368Z,26.80
2023-04-11T22:56:12.016Z,26.70
2023-04-11T22:58:40.108Z,26.60
2023-04-11T23:01:12.597Z,26.50
2023-04-11T23:03:41.916Z,26.40
2023-04-11T23:06:10.911Z,26.40
2023-04-11T23:08:39.095Z,26.40
2023-04-11T23:11:07.768Z,26.40
2023-04-11T23:13:36.147Z,26.40
2023-04-11T23:16:04.507Z,26.40
2023-04-11T23:18:32.704Z,26.40
2023-04-11T23:21:00.893Z,26.30
2023-04-11T23:23:29.288Z,26.20
2023-04-11T23:25:57.484Z,26.10
2023-04-11T23:28:25.671Z,25.80
2023-04-11T23:30:55.236Z,25.90
2023-04-11T23:34:37.832Z,25.70
2023-04-11T23:37:06.127Z,25.60
2023-04-11T23:39:34.259Z,25.70
2023-04-11T23:45:11.380Z,25.70
2023-04-11T23:47:39.552Z,25.70
2023-04-11T23:50:08.836Z,25.70
2023-04-11T23:54:00.722Z,25.70
2023-04-11T23:56:29.098Z,25.70
2023-04-11T23:58:57.256Z,25.70
